sensor_id;sensor_type;location;lat;lon;timestamp;P1;durP1;ratioP1;P2;durP2;ratioP2
20611;SDS011;10465;42.686;23.364;2023-12-28T00:01:46;47.97;;;25.13;;
20611;SDS011;10465;42.686;23.364;2023-12-28T00:04:12;45.75;;;23.05;;
20611;SDS011;10465;42.686;23.364;2023-12-28T00:06:37;47.63;;;24.52;;
20611;SDS011;10465;42.686;23.364;2023-12-28T00:09:03;52.20;;;25.92;;
20611;SDS011;10465;42.686;23.364;2023-12-28T00:11:29;48.03;;;25.08;;
20611;SDS011;10465;42.686;23.364;2023-12-28T00:13:54;45.97;;;25.15;;
20611;SDS011;10465;42.686;23.364;2023-12-28T00:16:20;49.53;;;25.67;;
20611;SDS011;10465;42.686;23.364;2023-12-28T00:18:45;55.50;;;28.33;;
20611;SDS011;10465;42.686;23.364;2023-12-28T00:21:11;64.55;;;31.60;;
20611;SDS011;10465;42.686;23.364;2023-12-28T00:23:36;59.80;;;32.20;;
20611;SDS011;10465;42.686;23.364;2023-12-28T00:26:01;63.28;;;31.25;;
20611;SDS011;10465;42.686;23.364;2023-12-28T00:28:27;61.90;;;31.50;;
20611;SDS011;10465;42.686;23.364;2023-12-28T00:30:53;59.97;;;29.63;;
20611;SDS011;10465;42.686;23.364;2023-12-28T00:33:18;54.33;;;26.30;;
20611;SDS011;10465;42.686;23.364;2023-12-28T00:35:44;44.40;;;19.88;;
20611;SDS011;10465;42.686;23.364;2023-12-28T00:38:09;32.17;;;15.88;;
20611;SDS011;10465;42.686;23.364;2023-12-28T00:40:34;34.70;;;19.27;;
20611;SDS011;10465;42.686;23.364;2023-12-28T00:43:00;46.42;;;23.38;;
20611;SDS011;10465;42.686;23.364;2023-12-28T00:45:25;53.85;;;24.13;;
20611;SDS011;10465;42.686;23.364;2023-12-28T00:47:51;46.58;;;25.90;;
20611;SDS011;10465;42.686;23.364;2023-12-28T00:50:17;53.00;;;25.17;;
20611;SDS011;10465;42.686;23.364;2023-12-28T00:52:42;48.85;;;26.67;;
20611;SDS011;10465;42.686;23.364;2023-12-28T00:55:08;46.17;;;24.63;;
20611;SDS011;10465;42.686;23.364;2023-12-28T00:57:34;49.85;;;26.52;;
20611;SDS011;10465;42.686;23.364;2023-12-28T00:59:59;46.40;;;24.08;;
20611;SDS011;10465;42.686;23.364;2023-12-28T01:02:25;48.03;;;21.90;;
20611;SDS011;10465;42.686;23.364;2023-12-28T01:04:51;38.20;;;16.90;;
20611;SDS011;10465;42.686;23.364;2023-12-28T01:07:16;30.92;;;16.50;;
20611;SDS011;10465;42.686;23.364;2023-12-28T01:09:41;32.65;;;13.10;;
20611;SDS011;10465;42.686;23.364;2023-12-28T01:12:07;20.85;;;10.93;;
20611;SDS011;10465;42.686;23.364;2023-12-28T01:14:32;25.13;;;12.77;;
20611;SDS011;10465;42.686;23.364;2023-12-28T01:16:58;23.25;;;12.90;;
20611;SDS011;10465;42.686;23.364;2023-12-28T01:19:23;22.92;;;11.98;;
20611;SDS011;10465;42.686;23.364;2023-12-28T01:21:49;17.67;;;9.75;;
20611;SDS011;10465;42.686;23.364;2023-12-28T01:24:15;25.23;;;13.15;;
20611;SDS011;10465;42.686;23.364;2023-12-28T01:26:41;25.65;;;13.82;;
20611;SDS011;10465;42.686;23.364;2023-12-28T01:29:06;20.15;;;8.82;;
20611;SDS011;10465;42.686;23.364;2023-12-28T01:31:32;11.30;;;7.13;;
20611;SDS011;10465;42.686;23.364;2023-12-28T01:33:57;11.75;;;7.00;;
20611;SDS011;10465;42.686;23.364;2023-12-28T01:36:23;12.20;;;6.82;;
20611;SDS011;10465;42.686;23.364;2023-12-28T01:38:48;13.20;;;7.10;;
20611;SDS011;10465;42.686;23.364;2023-12-28T01:41:14;11.32;;;6.40;;
20611;SDS011;10465;42.686;23.364;2023-12-28T01:43:43;16.17;;;8.70;;
20611;SDS011;10465;42.686;23.364;2023-12-28T01:46:11;16.25;;;9.02;;
20611;SDS011;10465;42.686;23.364;2023-12-28T01:48:42;13.60;;;7.80;;
20611;SDS011;10465;42.686;23.364;2023-12-28T01:51:09;12.52;;;7.47;;
20611;SDS011;10465;42.686;23.364;2023-12-28T01:53:37;13.10;;;6.78;;
20611;SDS011;10465;42.686;23.364;2023-12-28T01:56:02;12.30;;;7.13;;
20611;SDS011;10465;42.686;23.364;2023-12-28T01:58:28;15.23;;;6.63;;
20611;SDS011;10465;42.686;23.364;2023-12-28T02:00:58;11.10;;;6.72;;
20611;SDS011;10465;42.686;23.364;2023-12-28T02:03:23;13.85;;;8.35;;
20611;SDS011;10465;42.686;23.364;2023-12-28T02:05:50;10.15;;;6.85;;
20611;SDS011;10465;42.686;23.364;2023-12-28T02:08:17;14.50;;;8.55;;
20611;SDS011;10465;42.686;23.364;2023-12-28T02:10:42;17.27;;;8.30;;
20611;SDS011;10465;42.686;23.364;2023-12-28T02:13:08;20.30;;;10.77;;
20611;SDS011;10465;42.686;23.364;2023-12-28T02:15:34;22.75;;;11.43;;
20611;SDS011;10465;42.686;23.364;2023-12-28T02:20:34;28.15;;;14.18;;
20611;SDS011;10465;42.686;23.364;2023-12-28T02:23:00;30.35;;;15.45;;
20611;SDS011;10465;42.686;23.364;2023-12-28T02:25:26;29.75;;;15.20;;
20611;SDS011;10465;42.686;23.364;2023-12-28T02:27:51;29.58;;;15.93;;
20611;SDS011;10465;42.686;23.364;2023-12-28T02:30:17;35.08;;;18.20;;
20611;SDS011;10465;42.686;23.364;2023-12-28T02:35:43;35.78;;;18.00;;
20611;SDS011;10465;42.686;23.364;2023-12-28T02:38:13;32.42;;;17.42;;
20611;SDS011;10465;42.686;23.364;2023-12-28T02:40:41;35.42;;;17.10;;
20611;SDS011;10465;42.686;23.364;2023-12-28T02:43:10;31.27;;;15.90;;
20611;SDS011;10465;42.686;23.364;2023-12-28T02:45:37;28.33;;;16.35;;
20611;SDS011;10465;42.686;23.364;2023-12-28T02:48:03;28.25;;;15.60;;
20611;SDS011;10465;42.686;23.364;2023-12-28T02:50:29;29.15;;;15.25;;
20611;SDS011;10465;42.686;23.364;2023-12-28T02:52:58;26.70;;;14.13;;
20611;SDS011;10465;42.686;23.364;2023-12-28T02:55:23;25.67;;;12.52;;
20611;SDS011;10465;42.686;23.364;2023-12-28T02:57:50;24.23;;;12.95;;
20611;SDS011;10465;42.686;23.364;2023-12-28T03:00:16;22.65;;;12.93;;
20611;SDS011;10465;42.686;23.364;2023-12-28T03:02:42;27.90;;;12.82;;
20611;SDS011;10465;42.686;23.364;2023-12-28T03:05:08;24.25;;;12.95;;
20611;SDS011;10465;42.686;23.364;2023-12-28T03:07:34;29.40;;;13.38;;
20611;SDS011;10465;42.686;23.364;2023-12-28T03:10:00;25.90;;;14.43;;
20611;SDS011;10465;42.686;23.364;2023-12-28T03:12:28;28.08;;;13.73;;
20611;SDS011;10465;42.686;23.364;2023-12-28T03:14:54;22.98;;;13.18;;
20611;SDS011;10465;42.686;23.364;2023-12-28T03:17:20;21.60;;;11.93;;
20611;SDS011;10465;42.686;23.364;2023-12-28T03:19:45;22.90;;;12.88;;
20611;SDS011;10465;42.686;23.364;2023-12-28T03:22:11;20.63;;;12.98;;
20611;SDS011;10465;42.686;23.364;2023-12-28T03:24:37;20.20;;;11.52;;
20611;SDS011;10465;42.686;23.364;2023-12-28T03:27:03;24.55;;;12.88;;
20611;SDS011;10465;42.686;23.364;2023-12-28T03:29:29;24.15;;;12.93;;
20611;SDS011;10465;42.686;23.364;2023-12-28T03:31:55;23.52;;;12.32;;
20611;SDS011;10465;42.686;23.364;2023-12-28T03:34:21;24.98;;;12.82;;
20611;SDS011;10465;42.686;23.364;2023-12-28T03:36:47;23.23;;;12.70;;
20611;SDS011;10465;42.686;23.364;2023-12-28T03:39:13;25.23;;;13.23;;
20611;SDS011;10465;42.686;23.364;2023-12-28T03:41:39;25.35;;;13.25;;
20611;SDS011;10465;42.686;23.364;2023-12-28T03:44:04;24.60;;;12.20;;
20611;SDS011;10465;42.686;23.364;2023-12-28T03:46:30;21.50;;;12.68;;
20611;SDS011;10465;42.686;23.364;2023-12-28T03:48:55;18.83;;;10.68;;
20611;SDS011;10465;42.686;23.364;2023-12-28T03:51:20;21.27;;;11.85;;
20611;SDS011;10465;42.686;23.364;2023-12-28T03:53:46;21.45;;;13.13;;
20611;SDS011;10465;42.686;23.364;2023-12-28T03:56:21;27.77;;;14.75;;
20611;SDS011;10465;42.686;23.364;2023-12-28T03:58:51;24.67;;;14.40;;
20611;SDS011;10465;42.686;23.364;2023-12-28T04:01:17;32.97;;;16.95;;
20611;SDS011;10465;42.686;23.364;2023-12-28T04:03:43;36.47;;;18.83;;
20611;SDS011;10465;42.686;23.364;2023-12-28T04:06:09;36.35;;;18.02;;
20611;SDS011;10465;42.686;23.364;2023-12-28T04:08:34;32.03;;;17.85;;
20611;SDS011;10465;42.686;23.364;2023-12-28T04:11:00;30.60;;;17.60;;
20611;SDS011;10465;42.686;23.364;2023-12-28T04:13:25;34.75;;;17.65;;
20611;SDS011;10465;42.686;23.364;2023-12-28T04:15:50;31.80;;;17.90;;
20611;SDS011;10465;42.686;23.364;2023-12-28T04:18:16;32.63;;;17.52;;
20611;SDS011;10465;42.686;23.364;2023-12-28T04:20:44;31.45;;;16.60;;
20611;SDS011;10465;42.686;23.364;2023-12-28T04:23:10;26.52;;;14.60;;
20611;SDS011;10465;42.686;23.364;2023-12-28T04:25:36;21.33;;;11.57;;
20611;SDS011;10465;42.686;23.364;2023-12-28T04:28:01;23.90;;;12.88;;
20611;SDS011;10465;42.686;23.364;2023-12-28T04:30:27;22.33;;;11.88;;
20611;SDS011;10465;42.686;23.364;2023-12-28T04:32:53;19.08;;;11.15;;
20611;SDS011;10465;42.686;23.364;2023-12-28T04:35:18;20.67;;;10.38;;
20611;SDS011;10465;42.686;23.364;2023-12-28T04:37:44;16.00;;;9.98;;
20611;SDS011;10465;42.686;23.364;2023-12-28T04:40:09;15.38;;;9.27;;
20611;SDS011;10465;42.686;23.364;2023-12-28T04:42:35;21.45;;;9.77;;
20611;SDS011;10465;42.686;23.364;2023-12-28T04:45:01;26.63;;;12.07;;
20611;SDS011;10465;42.686;23.364;2023-12-28T04:47:26;28.20;;;14.27;;
20611;SDS011;10465;42.686;23.364;2023-12-28T04:49:52;22.55;;;13.38;;
20611;SDS011;10465;42.686;23.364;2023-12-28T04:52:17;23.35;;;12.20;;
20611;SDS011;10465;42.686;23.364;2023-12-28T04:54:43;24.02;;;12.40;;
20611;SDS011;10465;42.686;23.364;2023-12-28T04:57:09;19.58;;;12.02;;
20611;SDS011;10465;42.686;23.364;2023-12-28T04:59:38;24.52;;;10.90;;
20611;SDS011;10465;42.686;23.364;2023-12-28T05:02:04;21.27;;;10.70;;
20611;SDS011;10465;42.686;23.364;2023-12-28T05:04:29;22.50;;;11.88;;
20611;SDS011;10465;42.686;23.364;2023-12-28T05:06:55;18.73;;;10.48;;
20611;SDS011;10465;42.686;23.364;2023-12-28T05:09:20;17.92;;;11.65;;
20611;SDS011;10465;42.686;23.364;2023-12-28T05:11:46;21.83;;;11.25;;
20611;SDS011;10465;42.686;23.364;2023-12-28T05:14:11;26.13;;;12.77;;
20611;SDS011;10465;42.686;23.364;2023-12-28T05:16:36;24.38;;;14.02;;
20611;SDS011;10465;42.686;23.364;2023-12-28T05:19:02;23.63;;;13.82;;
20611;SDS011;10465;42.686;23.364;2023-12-28T05:21:27;28.15;;;15.07;;
20611;SDS011;10465;42.686;23.364;2023-12-28T05:23:53;29.33;;;15.18;;
20611;SDS011;10465;42.686;23.364;2023-12-28T05:26:18;30.92;;;16.75;;
20611;SDS011;10465;42.686;23.364;2023-12-28T05:28:44;27.67;;;17.02;;
20611;SDS011;10465;42.686;23.364;2023-12-28T05:31:09;36.45;;;18.15;;
20611;SDS011;10465;42.686;23.364;2023-12-28T05:33:34;33.80;;;18.05;;
20611;SDS011;10465;42.686;23.364;2023-12-28T05:36:00;37.38;;;18.23;;
20611;SDS011;10465;42.686;23.364;2023-12-28T05:38:25;35.90;;;19.75;;
20611;SDS011;10465;42.686;23.364;2023-12-28T05:40:51;31.38;;;17.75;;
20611;SDS011;10465;42.686;23.364;2023-12-28T05:43:16;36.22;;;18.77;;
20611;SDS011;10465;42.686;23.364;2023-12-28T05:45:41;29.83;;;17.65;;
20611;SDS011;10465;42.686;23.364;2023-12-28T05:48:07;37.05;;;18.67;;
20611;SDS011;10465;42.686;23.364;2023-12-28T05:50:33;29.08;;;15.80;;
20611;SDS011;10465;42.686;23.364;2023-12-28T05:52:58;32.88;;;17.00;;
20611;SDS011;10465;42.686;23.364;2023-12-28T05:55:23;31.27;;;18.10;;
20611;SDS011;10465;42.686;23.364;2023-12-28T05:57:49;29.67;;;16.20;;
20611;SDS011;10465;42.686;23.364;2023-12-28T06:00:14;34.05;;;16.80;;
20611;SDS011;10465;42.686;23.364;2023-12-28T06:02:41;30.83;;;16.95;;
20611;SDS011;10465;42.686;23.364;2023-12-28T06:05:07;32.92;;;16.80;;
20611;SDS011;10465;42.686;23.364;2023-12-28T06:07:32;37.45;;;17.17;;
20611;SDS011;10465;42.686;23.364;2023-12-28T06:09:58;34.22;;;17.13;;
20611;SDS011;10465;42.686;23.364;2023-12-28T06:12:24;26.55;;;16.15;;
20611;SDS011;10465;42.686;23.364;2023-12-28T06:14:49;28.92;;;16.58;;
20611;SDS011;10465;42.686;23.364;2023-12-28T06:17:15;28.85;;;16.38;;
20611;SDS011;10465;42.686;23.364;2023-12-28T06:19:41;29.48;;;16.10;;
20611;SDS011;10465;42.686;23.364;2023-12-28T06:22:06;27.52;;;16.58;;
20611;SDS011;10465;42.686;23.364;2023-12-28T06:24:32;33.90;;;16.75;;
20611;SDS011;10465;42.686;23.364;2023-12-28T06:26:57;29.90;;;17.23;;
20611;SDS011;10465;42.686;23.364;2023-12-28T06:29:23;31.42;;;17.70;;
20611;SDS011;10465;42.686;23.364;2023-12-28T06:31:48;38.13;;;18.10;;
20611;SDS011;10465;42.686;23.364;2023-12-28T06:34:13;34.90;;;18.27;;
20611;SDS011;10465;42.686;23.364;2023-12-28T06:36:39;39.25;;;18.55;;
20611;SDS011;10465;42.686;23.364;2023-12-28T06:39:04;35.22;;;19.40;;
20611;SDS011;10465;42.686;23.364;2023-12-28T06:41:30;42.65;;;20.15;;
20611;SDS011;10465;42.686;23.364;2023-12-28T06:43:56;37.80;;;19.27;;
20611;SDS011;10465;42.686;23.364;2023-12-28T06:46:21;38.67;;;19.50;;
20611;SDS011;10465;42.686;23.364;2023-12-28T06:48:47;39.90;;;21.67;;
20611;SDS011;10465;42.686;23.364;2023-12-28T06:51:19;41.22;;;23.17;;
20611;SDS011;10465;42.686;23.364;2023-12-28T06:53:45;39.53;;;21.83;;
20611;SDS011;10465;42.686;23.364;2023-12-28T06:56:11;40.50;;;23.02;;
20611;SDS011;10465;42.686;23.364;2023-12-28T06:58:37;48.42;;;26.67;;
20611;SDS011;10465;42.686;23.364;2023-12-28T07:01:03;62.53;;;32.63;;
20611;SDS011;10465;42.686;23.364;2023-12-28T07:03:29;58.95;;;31.98;;
20611;SDS011;10465;42.686;23.364;2023-12-28T07:05:57;61.90;;;32.85;;
20611;SDS011;10465;42.686;23.364;2023-12-28T07:08:26;52.42;;;31.52;;
20611;SDS011;10465;42.686;23.364;2023-12-28T07:10:51;58.78;;;32.08;;
20611;SDS011;10465;42.686;23.364;2023-12-28T07:13:17;58.55;;;30.38;;
20611;SDS011;10465;42.686;23.364;2023-12-28T07:15:42;48.67;;;25.40;;
20611;SDS011;10465;42.686;23.364;2023-12-28T07:18:08;50.33;;;26.80;;
20611;SDS011;10465;42.686;23.364;2023-12-28T07:20:33;45.97;;;25.48;;
20611;SDS011;10465;42.686;23.364;2023-12-28T07:22:58;42.72;;;24.30;;
20611;SDS011;10465;42.686;23.364;2023-12-28T07:25:24;44.20;;;23.80;;
20611;SDS011;10465;42.686;23.364;2023-12-28T07:27:49;37.15;;;20.70;;
20611;SDS011;10465;42.686;23.364;2023-12-28T07:30:15;36.47;;;21.23;;
20611;SDS011;10465;42.686;23.364;2023-12-28T07:32:42;40.97;;;21.23;;
20611;SDS011;10465;42.686;23.364;2023-12-28T07:35:08;37.60;;;22.15;;
20611;SDS011;10465;42.686;23.364;2023-12-28T07:37:34;36.47;;;20.65;;
20611;SDS011;10465;42.686;23.364;2023-12-28T07:39:59;33.17;;;18.33;;
20611;SDS011;10465;42.686;23.364;2023-12-28T07:42:25;35.63;;;18.80;;
20611;SDS011;10465;42.686;23.364;2023-12-28T07:44:51;31.45;;;18.00;;
20611;SDS011;10465;42.686;23.364;2023-12-28T07:47:16;25.00;;;14.55;;
20611;SDS011;10465;42.686;23.364;2023-12-28T07:49:41;28.42;;;15.57;;
20611;SDS011;10465;42.686;23.364;2023-12-28T07:52:07;33.28;;;16.60;;
20611;SDS011;10465;42.686;23.364;2023-12-28T07:54:32;28.75;;;16.60;;
20611;SDS011;10465;42.686;23.364;2023-12-28T07:56:58;28.58;;;15.45;;
20611;SDS011;10465;42.686;23.364;2023-12-28T07:59:24;29.23;;;16.38;;
20611;SDS011;10465;42.686;23.364;2023-12-28T08:01:50;33.95;;;17.30;;
20611;SDS011;10465;42.686;23.364;2023-12-28T08:04:15;29.80;;;16.20;;
20611;SDS011;10465;42.686;23.364;2023-12-28T08:06:41;33.22;;;16.70;;
20611;SDS011;10465;42.686;23.364;2023-12-28T08:09:07;31.90;;;17.45;;
20611;SDS011;10465;42.686;23.364;2023-12-28T08:11:33;30.08;;;17.63;;
20611;SDS011;10465;42.686;23.364;2023-12-28T08:13:58;31.02;;;16.90;;
20611;SDS011;10465;42.686;23.364;2023-12-28T08:16:24;33.78;;;17.70;;
20611;SDS011;10465;42.686;23.364;2023-12-28T08:18:49;33.55;;;18.00;;
20611;SDS011;10465;42.686;23.364;2023-12-28T08:21:14;33.78;;;19.20;;
20611;SDS011;10465;42.686;23.364;2023-12-28T08:23:40;47.95;;;24.10;;
20611;SDS011;10465;42.686;23.364;2023-12-28T08:26:05;62.72;;;33.55;;
20611;SDS011;10465;42.686;23.364;2023-12-28T08:28:32;77.05;;;39.92;;
20611;SDS011;10465;42.686;23.364;2023-12-28T08:30:58;66.28;;;36.20;;
20611;SDS011;10465;42.686;23.364;2023-12-28T08:33:23;61.55;;;31.90;;
20611;SDS011;10465;42.686;23.364;2023-12-28T08:35:48;50.28;;;28.05;;
20611;SDS011;10465;42.686;23.364;2023-12-28T08:38:14;47.13;;;24.10;;
20611;SDS011;10465;42.686;23.364;2023-12-28T08:40:39;42.15;;;24.00;;
20611;SDS011;10465;42.686;23.364;2023-12-28T08:43:05;38.10;;;24.63;;
20611;SDS011;10465;42.686;23.364;2023-12-28T08:45:30;36.42;;;22.40;;
20611;SDS011;10465;42.686;23.364;2023-12-28T08:47:56;38.13;;;23.25;;
20611;SDS011;10465;42.686;23.364;2023-12-28T08:50:21;37.83;;;23.13;;
20611;SDS011;10465;42.686;23.364;2023-12-28T08:52:47;39.95;;;22.65;;
20611;SDS011;10465;42.686;23.364;2023-12-28T08:55:13;42.92;;;24.20;;
20611;SDS011;10465;42.686;23.364;2023-12-28T08:57:39;39.50;;;22.38;;
20611;SDS011;10465;42.686;23.364;2023-12-28T09:00:07;39.72;;;23.30;;
20611;SDS011;10465;42.686;23.364;2023-12-28T09:02:33;34.38;;;21.05;;
20611;SDS011;10465;42.686;23.364;2023-12-28T09:04:58;39.47;;;21.65;;
20611;SDS011;10465;42.686;23.364;2023-12-28T09:07:24;34.60;;;20.45;;
20611;SDS011;10465;42.686;23.364;2023-12-28T09:09:50;41.00;;;21.10;;
20611;SDS011;10465;42.686;23.364;2023-12-28T09:12:15;32.47;;;20.08;;
20611;SDS011;10465;42.686;23.364;2023-12-28T09:14:41;33.78;;;19.90;;
20611;SDS011;10465;42.686;23.364;2023-12-28T09:17:06;40.10;;;22.45;;
20611;SDS011;10465;42.686;23.364;2023-12-28T09:19:31;36.90;;;21.02;;
20611;SDS011;10465;42.686;23.364;2023-12-28T09:21:57;35.17;;;21.45;;
20611;SDS011;10465;42.686;23.364;2023-12-28T09:24:22;38.83;;;22.60;;
20611;SDS011;10465;42.686;23.364;2023-12-28T09:26:48;39.45;;;21.50;;
20611;SDS011;10465;42.686;23.364;2023-12-28T09:29:13;40.35;;;21.80;;
20611;SDS011;10465;42.686;23.364;2023-12-28T09:31:39;32.72;;;20.40;;
20611;SDS011;10465;42.686;23.364;2023-12-28T09:34:04;30.55;;;18.48;;
20611;SDS011;10465;42.686;23.364;2023-12-28T09:36:30;32.10;;;19.55;;
20611;SDS011;10465;42.686;23.364;2023-12-28T09:38:56;34.33;;;19.58;;
20611;SDS011;10465;42.686;23.364;2023-12-28T09:41:24;33.20;;;18.88;;
20611;SDS011;10465;42.686;23.364;2023-12-28T09:43:56;34.40;;;20.25;;
20611;SDS011;10465;42.686;23.364;2023-12-28T09:46:30;33.13;;;19.23;;
20611;SDS011;10465;42.686;23.364;2023-12-28T09:48:57;32.40;;;19.15;;
20611;SDS011;10465;42.686;23.364;2023-12-28T09:51:24;30.52;;;20.25;;
20611;SDS011;10465;42.686;23.364;2023-12-28T09:53:52;31.42;;;18.60;;
20611;SDS011;10465;42.686;23.364;2023-12-28T09:56:18;36.00;;;20.40;;
20611;SDS011;10465;42.686;23.364;2023-12-28T09:58:43;32.35;;;19.20;;
20611;SDS011;10465;42.686;23.364;2023-12-28T10:01:11;40.45;;;21.73;;
20611;SDS011;10465;42.686;23.364;2023-12-28T10:03:39;37.55;;;20.63;;
20611;SDS011;10465;42.686;23.364;2023-12-28T10:06:05;33.20;;;20.23;;
20611;SDS011;10465;42.686;23.364;2023-12-28T10:08:30;34.58;;;20.83;;
20611;SDS011;10465;42.686;23.364;2023-12-28T10:10:56;34.90;;;20.77;;
20611;SDS011;10465;42.686;23.364;2023-12-28T10:13:24;35.10;;;21.20;;
20611;SDS011;10465;42.686;23.364;2023-12-28T10:15:50;33.20;;;19.58;;
20611;SDS011;10465;42.686;23.364;2023-12-28T10:18:19;32.85;;;19.17;;
20611;SDS011;10465;42.686;23.364;2023-12-28T10:20:51;38.28;;;20.38;;
20611;SDS011;10465;42.686;23.364;2023-12-28T10:23:21;36.53;;;19.83;;
20611;SDS011;10465;42.686;23.364;2023-12-28T10:25:47;35.13;;;21.38;;
20611;SDS011;10465;42.686;23.364;2023-12-28T10:28:15;37.95;;;21.77;;
20611;SDS011;10465;42.686;23.364;2023-12-28T10:30:43;41.85;;;21.73;;
20611;SDS011;10465;42.686;23.364;2023-12-28T10:33:09;37.13;;;21.73;;
20611;SDS011;10465;42.686;23.364;2023-12-28T10:35:34;34.03;;;19.67;;
20611;SDS011;10465;42.686;23.364;2023-12-28T10:38:00;34.55;;;20.75;;
20611;SDS011;10465;42.686;23.364;2023-12-28T10:40:28;35.83;;;20.83;;
20611;SDS011;10465;42.686;23.364;2023-12-28T10:42:59;36.05;;;21.00;;
20611;SDS011;10465;42.686;23.364;2023-12-28T10:45:28;28.13;;;17.98;;
20611;SDS011;10465;42.686;23.364;2023-12-28T10:50:41;26.42;;;17.08;;
20611;SDS011;10465;42.686;23.364;2023-12-28T10:53:56;28.52;;;17.02;;
20611;SDS011;10465;42.686;23.364;2023-12-28T10:56:30;32.05;;;18.60;;
20611;SDS011;10465;42.686;23.364;2023-12-28T11:01:35;36.53;;;19.20;;
20611;SDS011;10465;42.686;23.364;2023-12-28T11:06:39;32.30;;;19.65;;
20611;SDS011;10465;42.686;23.364;2023-12-28T11:09:07;32.35;;;19.95;;
20611;SDS011;10465;42.686;23.364;2023-12-28T11:11:35;33.50;;;19.83;;
20611;SDS011;10465;42.686;23.364;2023-12-28T11:14:02;36.00;;;20.25;;
20611;SDS011;10465;42.686;23.364;2023-12-28T11:16:29;33.55;;;20.23;;
20611;SDS011;10465;42.686;23.364;2023-12-28T11:18:56;36.78;;;20.88;;
20611;SDS011;10465;42.686;23.364;2023-12-28T11:21:23;37.22;;;20.27;;
20611;SDS011;10465;42.686;23.364;2023-12-28T11:23:49;34.75;;;20.02;;
20611;SDS011;10465;42.686;23.364;2023-12-28T11:26:15;35.65;;;20.02;;
20611;SDS011;10465;42.686;23.364;2023-12-28T11:28:49;36.67;;;21.55;;
20611;SDS011;10465;42.686;23.364;2023-12-28T11:31:15;39.03;;;21.52;;
20611;SDS011;10465;42.686;23.364;2023-12-28T11:33:46;34.92;;;20.02;;
20611;SDS011;10465;42.686;23.364;2023-12-28T11:36:22;30.80;;;18.27;;
20611;SDS011;10465;42.686;23.364;2023-12-28T11:38:51;32.75;;;18.55;;
20611;SDS011;10465;42.686;23.364;2023-12-28T11:41:20;40.97;;;20.83;;
20611;SDS011;10465;42.686;23.364;2023-12-28T11:43:51;35.65;;;20.00;;
20611;SDS011;10465;42.686;23.364;2023-12-28T11:46:18;32.50;;;19.88;;
20611;SDS011;10465;42.686;23.364;2023-12-28T11:48:44;29.85;;;18.23;;
20611;SDS011;10465;42.686;23.364;2023-12-28T11:51:10;32.65;;;19.73;;
20611;SDS011;10465;42.686;23.364;2023-12-28T11:53:35;31.55;;;19.15;;
20611;SDS011;10465;42.686;23.364;2023-12-28T11:56:01;35.95;;;19.05;;
20611;SDS011;10465;42.686;23.364;2023-12-28T11:58:28;33.33;;;18.52;;
20611;SDS011;10465;42.686;23.364;2023-12-28T12:00:53;30.52;;;18.90;;
20611;SDS011;10465;42.686;23.364;2023-12-28T12:03:19;37.75;;;19.73;;
20611;SDS011;10465;42.686;23.364;2023-12-28T12:05:44;38.63;;;21.23;;
20611;SDS011;10465;42.686;23.364;2023-12-28T12:08:10;37.58;;;20.85;;
20611;SDS011;10465;42.686;23.364;2023-12-28T12:10:39;35.10;;;20.77;;
20611;SDS011;10465;42.686;23.364;2023-12-28T12:13:05;35.13;;;20.55;;
20611;SDS011;10465;42.686;23.364;2023-12-28T12:15:31;31.38;;;19.00;;
20611;SDS011;10465;42.686;23.364;2023-12-28T12:17:56;37.17;;;20.38;;
20611;SDS011;10465;42.686;23.364;2023-12-28T12:20:22;32.00;;;19.05;;
20611;SDS011;10465;42.686;23.364;2023-12-28T12:22:48;31.52;;;17.10;;
20611;SDS011;10465;42.686;23.364;2023-12-28T12:25:14;32.08;;;17.95;;
20611;SDS011;10465;42.686;23.364;2023-12-28T12:27:41;30.17;;;18.00;;
20611;SDS011;10465;42.686;23.364;2023-12-28T12:30:06;32.22;;;18.00;;
20611;SDS011;10465;42.686;23.364;2023-12-28T12:32:33;33.30;;;18.48;;
20611;SDS011;10465;42.686;23.364;2023-12-28T12:35:02;30.50;;;16.40;;
20611;SDS011;10465;42.686;23.364;2023-12-28T12:37:28;27.25;;;16.85;;
20611;SDS011;10465;42.686;23.364;2023-12-28T12:39:54;28.48;;;16.98;;
20611;SDS011;10465;42.686;23.364;2023-12-28T12:42:19;27.05;;;17.17;;
20611;SDS011;10465;42.686;23.364;2023-12-28T12:44:45;26.27;;;15.98;;
20611;SDS011;10465;42.686;23.364;2023-12-28T12:47:12;27.50;;;17.02;;
20611;SDS011;10465;42.686;23.364;2023-12-28T12:49:38;30.35;;;17.20;;
20611;SDS011;10465;42.686;23.364;2023-12-28T12:52:03;28.23;;;17.25;;
20611;SDS011;10465;42.686;23.364;2023-12-28T12:54:29;27.85;;;15.95;;
20611;SDS011;10465;42.686;23.364;2023-12-28T12:56:54;25.45;;;15.70;;
20611;SDS011;10465;42.686;23.364;2023-12-28T12:59:21;31.67;;;16.67;;
20611;SDS011;10465;42.686;23.364;2023-12-28T13:01:47;23.45;;;14.65;;
20611;SDS011;10465;42.686;23.364;2023-12-28T13:04:17;22.73;;;13.73;;
20611;SDS011;10465;42.686;23.364;2023-12-28T13:06:43;20.27;;;13.13;;
20611;SDS011;10465;42.686;23.364;2023-12-28T13:09:08;20.92;;;12.52;;
20611;SDS011;10465;42.686;23.364;2023-12-28T13:11:36;24.25;;;13.60;;
20611;SDS011;10465;42.686;23.364;2023-12-28T13:14:01;21.90;;;12.38;;
20611;SDS011;10465;42.686;23.364;2023-12-28T13:16:27;25.10;;;12.90;;
20611;SDS011;10465;42.686;23.364;2023-12-28T13:18:54;23.60;;;11.98;;
20611;SDS011;10465;42.686;23.364;2023-12-28T13:21:19;18.77;;;11.18;;
20611;SDS011;10465;42.686;23.364;2023-12-28T13:23:45;22.92;;;11.90;;
20611;SDS011;10465;42.686;23.364;2023-12-28T13:26:10;20.98;;;12.27;;
20611;SDS011;10465;42.686;23.364;2023-12-28T13:28:35;18.70;;;11.95;;
20611;SDS011;10465;42.686;23.364;2023-12-28T13:31:01;28.60;;;14.10;;
20611;SDS011;10465;42.686;23.364;2023-12-28T13:33:26;24.25;;;14.85;;
20611;SDS011;10465;42.686;23.364;2023-12-28T13:35:52;22.50;;;14.60;;
20611;SDS011;10465;42.686;23.364;2023-12-28T13:38:17;30.17;;;16.00;;
20611;SDS011;10465;42.686;23.364;2023-12-28T13:40:43;27.48;;;14.60;;
20611;SDS011;10465;42.686;23.364;2023-12-28T13:43:08;27.42;;;15.90;;
20611;SDS011;10465;42.686;23.364;2023-12-28T13:45:35;29.17;;;15.80;;
20611;SDS011;10465;42.686;23.364;2023-12-28T13:48:00;26.73;;;15.85;;
20611;SDS011;10465;42.686;23.364;2023-12-28T13:50:25;32.35;;;16.42;;
20611;SDS011;10465;42.686;23.364;2023-12-28T13:52:51;30.38;;;16.95;;
20611;SDS011;10465;42.686;23.364;2023-12-28T13:55:16;29.70;;;16.08;;
20611;SDS011;10465;42.686;23.364;2023-12-28T13:57:42;31.33;;;16.90;;
20611;SDS011;10465;42.686;23.364;2023-12-28T14:00:07;31.15;;;17.05;;
20611;SDS011;10465;42.686;23.364;2023-12-28T14:02:33;27.25;;;16.40;;
20611;SDS011;10465;42.686;23.364;2023-12-28T14:04:59;33.90;;;16.38;;
20611;SDS011;10465;42.686;23.364;2023-12-28T14:07:24;29.70;;;16.23;;
20611;SDS011;10465;42.686;23.364;2023-12-28T14:09:50;25.83;;;15.57;;
20611;SDS011;10465;42.686;23.364;2023-12-28T14:12:16;27.52;;;16.40;;
20611;SDS011;10465;42.686;23.364;2023-12-28T14:14:42;26.38;;;15.38;;
20611;SDS011;10465;42.686;23.364;2023-12-28T14:17:07;25.98;;;14.90;;